Terminal Aerodrome Forecast
Issued by NWS

Home | Current Version | Previous Version | Text Only | Print | Product List | Glossary On
Versions: 1 2 3 4 5 6 7 8 9 10 11 12 13 14
474
FTUS46 KSEW 090625 AAA
TAFBLI
TAF AMD
KBLI 090625Z 0906/1006 VRB03KT P6SM SKC
      TEMPO 0906/0910 3SM MIFG
     FM091000 00000KT P6SM SKC
      TEMPO 0910/0914 2SM MIFG
     FM091800 VRB04KT P6SM BKN250=

USA.gov is the U.S. government's official web portal to all federal, state and local government web resources and services.